createdAt,value
2018-01-22T00:00:23.041Z,28.9
2018-01-22T00:01:22.851Z,30.1
2018-01-22T00:02:22.784Z,30.8
2018-01-22T00:03:22.702Z,30.8
2018-01-22T00:04:23.006Z,30.8
2018-01-22T00:05:22.642Z,30.9
2018-01-22T00:06:22.522Z,31.2
2018-01-22T00:07:22.023Z,31.4
2018-01-22T00:08:22.949Z,31.8
2018-01-22T00:09:22.084Z,32.1
2018-01-22T00:10:22.108Z,32.4
2018-01-22T00:11:22.251Z,32.8
2018-01-22T00:12:22.225Z,33.2
2018-01-22T00:13:22.282Z,33.6
2018-01-22T00:14:22.104Z,34.2
2018-01-22T00:15:22.243Z,34.8
2018-01-22T00:16:21.837Z,35.1
2018-01-22T00:17:21.750Z,35.4
2018-01-22T00:18:21.455Z,35.8
2018-01-22T00:19:21.574Z,35.9
2018-01-22T00:20:21.378Z,36.2
2018-01-22T00:21:21.566Z,36.3
2018-01-22T00:22:21.331Z,36.5
2018-01-22T00:23:21.349Z,36.7
2018-01-22T00:24:21.544Z,36.9
2018-01-22T00:25:21.086Z,36.9
2018-01-22T00:26:21.317Z,37.1
2018-01-22T00:27:21.515Z,37.1
2018-01-22T00:28:20.894Z,36.6
2018-01-22T00:29:20.717Z,30.1
2018-01-22T00:30:20.561Z,26.3
2018-01-22T00:31:21.146Z,25.6
2018-01-22T00:32:20.529Z,29.3
2018-01-22T00:33:20.737Z,30.6
2018-01-22T00:34:20.472Z,31.4
2018-01-22T00:35:20.320Z,32
2018-01-22T00:36:20.377Z,32.3
2018-01-22T00:37:20.273Z,32.4
2018-01-22T00:38:19.911Z,32.8
2018-01-22T00:39:20.234Z,33.1
2018-01-22T00:40:20.668Z,33.6
2018-01-22T00:41:19.984Z,33.8
2018-01-22T00:42:20.252Z,33.9
2018-01-22T00:43:20.359Z,34
2018-01-22T00:44:19.790Z,34.1
2018-01-22T00:45:19.599Z,34.1
2018-01-22T00:46:19.791Z,34.2
2018-01-22T00:47:19.645Z,34.6
2018-01-22T00:48:19.411Z,34.9
2018-01-22T00:49:19.946Z,35.3
2018-01-22T00:50:19.746Z,35.4
2018-01-22T00:51:19.117Z,35.6
2018-01-22T00:52:19.266Z,35.6
2018-01-22T00:53:19.071Z,35.7
2018-01-22T00:54:19.732Z,35
2018-01-22T00:55:18.861Z,24.9
2018-01-22T00:56:19.042Z,4.1
2018-01-22T00:57:19.231Z,-4.8
2018-01-22T00:58:18.607Z,-11.3
2018-01-22T00:59:19.271Z,-15.9
2018-01-22T01:00:18.950Z,-18.2
2018-01-22T01:01:18.617Z,-19.4
2018-01-22T01:02:18.353Z,-20.4
2018-01-22T01:03:18.388Z,-21.6
2018-01-22T01:04:18.321Z,-22.3
2018-01-22T01:05:18.093Z,-21.8
2018-01-22T01:06:18.379Z,-14.9
2018-01-22T01:07:18.074Z,-11
2018-01-22T01:08:18.062Z,-8.8
2018-01-22T01:09:17.974Z,-0.6
2018-01-22T01:10:18.105Z,13.2
2018-01-22T01:11:17.813Z,20.4
2018-01-22T01:12:17.878Z,24.8
2018-01-22T01:13:17.677Z,28.2
2018-01-22T01:14:17.539Z,31.1
2018-01-22T01:15:18.377Z,33.1
2018-01-22T01:16:18.211Z,35
2018-01-22T01:17:17.316Z,36.4
2018-01-22T01:18:17.237Z,37.4
2018-01-22T01:19:17.346Z,37.9
2018-01-22T01:20:17.190Z,38.3
2018-01-22T01:21:17.057Z,39.3
2018-01-22T01:22:17.128Z,40.3
2018-01-22T01:23:17.271Z,40.8
2018-01-22T01:24:16.954Z,41.1
2018-01-22T01:25:16.830Z,41.3
2018-01-22T01:26:16.729Z,41.3
2018-01-22T01:27:17.094Z,40.8
2018-01-22T01:28:16.457Z,35.8
2018-01-22T01:29:16.935Z,33.3
2018-01-22T01:30:16.638Z,32.1
2018-01-22T01:31:16.314Z,31.8
2018-01-22T01:32:16.312Z,30.5
2018-01-22T01:33:16.117Z,24.8
2018-01-22T01:34:16.131Z,23.4
2018-01-22T01:35:16.673Z,23.9
2018-01-22T01:36:16.106Z,27.7
2018-01-22T01:37:16.045Z,29.4
2018-01-22T01:38:16.081Z,30.5
2018-01-22T01:39:16.011Z,30.7
2018-01-22T01:40:15.722Z,30.8
2018-01-22T01:41:16.200Z,30.8
2018-01-22T01:42:15.791Z,31
2018-01-22T01:43:15.901Z,31.3
2018-01-22T01:44:15.654Z,31.5
2018-01-22T01:45:15.197Z,31.9
2018-01-22T01:46:15.668Z,32.2
2018-01-22T01:47:15.551Z,32.6
2018-01-22T01:48:16.030Z,32.9
2018-01-22T01:49:15.583Z,33.8
2018-01-22T01:50:15.366Z,34.6
2018-01-22T01:51:15.347Z,35.4
2018-01-22T01:52:15.418Z,36.1
2018-01-22T01:53:15.313Z,36.6
2018-01-22T01:54:15.429Z,37
2018-01-22T01:55:14.748Z,37.4
2018-01-22T01:56:14.738Z,37.4
2018-01-22T01:57:14.664Z,37.4
2018-01-22T01:58:14.965Z,37.4
2018-01-22T01:59:14.423Z,37.3
2018-01-22T02:00:14.954Z,37.2
2018-01-22T02:01:14.589Z,37.2
2018-01-22T02:02:14.774Z,37.2
2018-01-22T02:03:14.256Z,37.2
2018-01-22T02:04:14.247Z,37.1
2018-01-22T02:05:14.491Z,37.1
2018-01-22T02:06:14.335Z,35.9
2018-01-22T02:07:14.266Z,28.8
2018-01-22T02:08:13.806Z,25.3
2018-01-22T02:09:13.928Z,25.3
2018-01-22T02:10:14.154Z,29.6
2018-01-22T02:11:13.993Z,31.1
2018-01-22T02:12:13.914Z,31.9
2018-01-22T02:13:13.344Z,32.2
2018-01-22T02:14:13.834Z,32.4
2018-01-22T02:15:13.610Z,32.6
2018-01-22T02:16:13.800Z,32.8
2018-01-22T02:17:13.473Z,33
2018-01-22T02:18:13.428Z,33.7
2018-01-22T02:19:13.243Z,34.3
2018-01-22T02:20:13.368Z,34.7
2018-01-22T02:21:13.408Z,34.9
2018-01-22T02:22:12.935Z,35
2018-01-22T02:23:12.970Z,35.1
2018-01-22T02:24:13.096Z,35.2
2018-01-22T02:25:12.603Z,35.6
2018-01-22T02:26:12.673Z,35.9
2018-01-22T02:27:12.780Z,36.1
2018-01-22T02:28:12.789Z,34.4
2018-01-22T02:29:12.425Z,21.4
2018-01-22T02:30:13.100Z,2.7
2018-01-22T02:31:12.114Z,-5.6
2018-01-22T02:32:12.160Z,-12.2
2018-01-22T02:33:12.397Z,-17.1
2018-01-22T02:34:12.168Z,-19
2018-01-22T02:35:12.905Z,-20.6
2018-01-22T02:36:12.450Z,-21.6
2018-01-22T02:37:12.357Z,-21.9
2018-01-22T02:38:11.650Z,-22.5
2018-01-22T02:39:12.282Z,-22.3
2018-01-22T02:40:11.593Z,-15.6
2018-01-22T02:41:11.677Z,-12.1
2018-01-22T02:42:12.134Z,-9.9
2018-01-22T02:43:11.568Z,1.3
2018-01-22T02:44:11.422Z,14.4
2018-01-22T02:45:11.234Z,21.2
2018-01-22T02:46:11.554Z,25.4
2018-01-22T02:47:11.187Z,28.8
2018-01-22T02:48:11.135Z,31.3
2018-01-22T02:49:10.845Z,33
2018-01-22T02:50:11.863Z,34.8
2018-01-22T02:51:11.016Z,36
2018-01-22T02:52:10.758Z,36.8
2018-01-22T02:53:11.299Z,37.2
2018-01-22T02:54:10.729Z,37.2
2018-01-22T02:55:10.467Z,36.9
2018-01-22T02:56:10.885Z,36.5
2018-01-22T02:57:10.514Z,36.3
2018-01-22T02:58:10.436Z,36.4
2018-01-22T02:59:10.638Z,36.8
2018-01-22T03:00:10.254Z,37.1
2018-01-22T03:01:10.158Z,37.3
2018-01-22T03:02:10.158Z,37.6
2018-01-22T03:03:10.420Z,37.6
2018-01-22T03:04:09.826Z,37.4
2018-01-22T03:05:10.153Z,37
2018-01-22T03:06:09.616Z,36.6
2018-01-22T03:07:09.832Z,36.3
2018-01-22T03:08:09.761Z,36.1
2018-01-22T03:09:09.492Z,36.1
2018-01-22T03:10:09.967Z,36.1
2018-01-22T03:11:09.376Z,36.1
2018-01-22T03:12:09.358Z,36.1
2018-01-22T03:13:09.608Z,36.2
2018-01-22T03:14:09.541Z,36.3
2018-01-22T03:15:09.074Z,36.3
2018-01-22T03:16:09.518Z,36.3
2018-01-22T03:17:09.056Z,36.3
2018-01-22T03:18:08.860Z,36.4
2018-01-22T03:19:09.028Z,36.5
2018-01-22T03:20:08.637Z,30.9
2018-01-22T03:21:08.933Z,25.4
2018-01-22T03:22:09.285Z,24.3
2018-01-22T03:23:08.946Z,27.1
2018-01-22T03:24:08.809Z,29.2
2018-01-22T03:25:08.817Z,24.6
2018-01-22T03:26:08.441Z,23.4
2018-01-22T03:27:08.254Z,23.5
2018-01-22T03:28:08.379Z,27.8
2018-01-22T03:29:08.256Z,29.9
2018-01-22T03:30:07.961Z,30.7
2018-01-22T03:31:07.842Z,31.1
2018-01-22T03:32:08.243Z,31.1
2018-01-22T03:33:07.915Z,31.1
2018-01-22T03:34:08.168Z,31.2
2018-01-22T03:35:08.239Z,31.4
2018-01-22T03:36:07.713Z,31.6
2018-01-22T03:37:08.000Z,31.9
2018-01-22T03:38:08.098Z,32.2
2018-01-22T03:39:07.392Z,32.6
2018-01-22T03:40:07.509Z,32.9
2018-01-22T03:41:08.361Z,33.6
2018-01-22T03:42:07.711Z,34.4
2018-01-22T03:43:07.330Z,35.3
2018-01-22T03:44:07.849Z,36.1
2018-01-22T03:45:07.219Z,36.6
2018-01-22T03:46:07.346Z,37.1
2018-01-22T03:47:07.370Z,37.3
2018-01-22T03:48:07.156Z,36.9
2018-01-22T03:49:07.113Z,36.6
2018-01-22T03:50:06.952Z,36.2
2018-01-22T03:51:06.891Z,35.9
2018-01-22T03:52:06.527Z,35.9
2018-01-22T03:53:06.844Z,35.9
2018-01-22T03:54:06.776Z,35.9
2018-01-22T03:55:06.224Z,34.5
2018-01-22T03:56:06.234Z,28.4
2018-01-22T03:57:07.095Z,26.2
2018-01-22T03:58:06.229Z,26.5
2018-01-22T03:59:06.621Z,29.3
2018-01-22T04:00:06.252Z,30.6
2018-01-22T04:01:05.987Z,31.3
2018-01-22T04:02:05.954Z,31.6
2018-01-22T04:03:06.347Z,31.9
2018-01-22T04:04:06.296Z,32.3
2018-01-22T04:05:05.687Z,32.6
2018-01-22T04:06:06.182Z,33
2018-01-22T04:07:06.095Z,33.6
2018-01-22T04:08:05.592Z,34.1
2018-01-22T04:09:05.954Z,34.4
2018-01-22T04:10:05.571Z,34.7
2018-01-22T04:11:05.309Z,34.8
2018-01-22T04:12:05.571Z,34.9
2018-01-22T04:13:05.402Z,35.2
2018-01-22T04:14:05.310Z,35.8
2018-01-22T04:15:05.290Z,36.1
2018-01-22T04:16:05.061Z,36.3
2018-01-22T04:17:05.803Z,36.6
2018-01-22T04:18:05.022Z,36.8
2018-01-22T04:19:04.873Z,37
2018-01-22T04:20:05.047Z,37.3
2018-01-22T04:21:04.808Z,36
2018-01-22T04:22:04.638Z,31.6
2018-01-22T04:23:05.183Z,29.9
2018-01-22T04:24:04.660Z,29.5
2018-01-22T04:25:04.446Z,30.3
2018-01-22T04:26:04.211Z,27.3
2018-01-22T04:27:04.596Z,24.1
2018-01-22T04:28:04.222Z,23.4
2018-01-22T04:29:04.094Z,25.2
2018-01-22T04:30:04.591Z,27.9
2018-01-22T04:31:04.196Z,29.1
2018-01-22T04:32:04.345Z,30.1
2018-01-22T04:33:04.368Z,30.7
2018-01-22T04:34:03.724Z,30.9
2018-01-22T04:35:03.887Z,31.2
2018-01-22T04:36:03.947Z,31.1
2018-01-22T04:37:03.630Z,31.3
2018-01-22T04:38:03.257Z,31.6
2018-01-22T04:39:03.576Z,31.8
2018-01-22T04:40:03.615Z,32.2
2018-01-22T04:41:03.830Z,32.6
2018-01-22T04:42:03.632Z,33
2018-01-22T04:43:03.692Z,33.6
2018-01-22T04:44:03.432Z,34.3
2018-01-22T04:45:03.038Z,35.1
2018-01-22T04:46:03.381Z,35.6
2018-01-22T04:47:02.811Z,36.1
2018-01-22T04:48:02.872Z,36.6
2018-01-22T04:49:02.901Z,36.8
2018-01-22T04:50:03.166Z,32.4
2018-01-22T04:51:02.963Z,30
2018-01-22T04:52:02.856Z,29.1
2018-01-22T04:53:03.011Z,29.8
2018-01-22T04:54:02.713Z,30.4
2018-01-22T04:55:02.554Z,31.1
2018-01-22T04:56:02.217Z,31.3
2018-01-22T04:57:02.384Z,31.5
2018-01-22T04:58:02.366Z,31.3
2018-01-22T04:59:02.329Z,31.3
2018-01-22T05:00:02.043Z,31.4
2018-01-22T05:01:02.461Z,31.6
2018-01-22T05:02:01.963Z,31.9
2018-01-22T05:03:01.841Z,32.1
2018-01-22T05:04:01.861Z,32.6
2018-01-22T05:05:01.686Z,32.8
2018-01-22T05:06:01.901Z,33.3
2018-01-22T05:07:01.744Z,33.6
2018-01-22T05:08:01.661Z,34.3
2018-01-22T05:09:01.655Z,34.8
2018-01-22T05:10:01.231Z,35.2
2018-01-22T05:11:01.477Z,35.6
2018-01-22T05:12:01.198Z,35.8
2018-01-22T05:13:01.488Z,36
2018-01-22T05:14:01.377Z,36.2
2018-01-22T05:15:01.274Z,36.4
2018-01-22T05:16:01.057Z,36.6
2018-01-22T05:17:01.154Z,36.8
2018-01-22T05:18:01.000Z,36.9
2018-01-22T05:19:00.641Z,37.1
2018-01-22T05:20:00.462Z,37.2
2018-01-22T05:21:00.581Z,37.3
2018-01-22T05:22:00.379Z,37.3
2018-01-22T05:23:00.450Z,37.4
2018-01-22T05:24:00.360Z,37.4
2018-01-22T05:25:00.308Z,37.4
2018-01-22T05:26:00.306Z,37.4
2018-01-22T05:27:00.178Z,36.9
2018-01-22T05:28:00.081Z,30.3
2018-01-22T05:29:00.229Z,25.3
2018-01-22T05:29:59.806Z,24.4
2018-01-22T05:30:59.986Z,27.4
2018-01-22T05:32:00.101Z,30
2018-01-22T05:32:59.696Z,30.6
2018-01-22T05:33:59.711Z,30.5
2018-01-22T05:34:59.996Z,30.1
2018-01-22T05:35:59.851Z,29.9
2018-01-22T05:36:59.387Z,29.6
2018-01-22T05:37:59.488Z,29.4
2018-01-22T05:38:59.258Z,29.4
2018-01-22T05:39:59.446Z,29.6
2018-01-22T05:40:59.459Z,29.8
2018-01-22T05:41:59.024Z,30.2
2018-01-22T05:42:58.888Z,30.5
2018-01-22T05:43:59.109Z,30.9
2018-01-22T05:44:59.053Z,31.3
2018-01-22T05:45:58.735Z,32.1
2018-01-22T05:46:58.705Z,32.8
2018-01-22T05:47:59.095Z,33.6
2018-01-22T05:48:58.548Z,34.1
2018-01-22T05:49:58.578Z,34.4
2018-01-22T05:50:58.309Z,34.8
2018-01-22T05:51:58.545Z,35.1
2018-01-22T05:52:58.468Z,35.3
2018-01-22T05:53:58.977Z,35.6
2018-01-22T05:54:58.428Z,35.8
2018-01-22T05:55:57.956Z,35.9
2018-01-22T05:56:58.183Z,36.1
2018-01-22T05:57:58.017Z,36.3
2018-01-22T05:58:57.981Z,36.3
2018-01-22T05:59:57.764Z,36.4
2018-01-22T06:00:57.654Z,36.4
2018-01-22T06:01:58.383Z,36.4
2018-01-22T06:02:57.659Z,36.5
2018-01-22T06:03:57.946Z,36.7
2018-01-22T06:04:57.750Z,37.2
2018-01-22T06:05:57.788Z,37.7
2018-01-22T06:06:57.293Z,38.1
2018-01-22T06:07:57.628Z,38.4
2018-01-22T06:08:57.084Z,38.6
2018-01-22T06:09:57.189Z,38.7
2018-01-22T06:10:57.048Z,38.8
2018-01-22T06:11:57.229Z,38.9
2018-01-22T06:12:57.009Z,37.2
2018-01-22T06:13:57.245Z,21.9
2018-01-22T06:14:56.821Z,3.5
2018-01-22T06:15:57.699Z,-4.3
2018-01-22T06:16:57.103Z,-10.4
2018-01-22T06:17:56.647Z,-14.6
2018-01-22T06:18:56.596Z,-17.1
2018-01-22T06:19:56.982Z,-18.5
2018-01-22T06:20:56.994Z,-19.8
2018-01-22T06:21:56.563Z,-20.7
2018-01-22T06:22:56.325Z,-21.2
2018-01-22T06:23:56.413Z,-20.3
2018-01-22T06:24:56.054Z,-11.8
2018-01-22T06:25:56.204Z,1.3
2018-01-22T06:26:56.250Z,17.2
2018-01-22T06:27:55.850Z,24.6
2018-01-22T06:28:56.288Z,29.5
2018-01-22T06:29:55.620Z,33.3
2018-01-22T06:30:56.178Z,36.1
2018-01-22T06:31:55.777Z,38.3
2018-01-22T06:32:55.703Z,40.3
2018-01-22T07:01:53.468Z,30.1
2018-01-22T07:02:53.470Z,30
2018-01-22T07:03:53.659Z,30
2018-01-22T07:04:53.630Z,30.1
2018-01-22T07:05:53.330Z,30.5
2018-01-22T07:06:53.465Z,30.9
2018-01-22T07:07:53.265Z,31.4
2018-01-22T07:08:53.157Z,32.2
2018-01-22T07:09:53.429Z,32.6
2018-01-22T07:10:52.956Z,33.2
2018-01-22T07:11:52.956Z,33.8
2018-01-22T07:12:52.880Z,34.4
2018-01-22T07:13:52.689Z,35.2
2018-01-22T07:14:53.039Z,36
2018-01-22T07:15:52.531Z,36.6
2018-01-22T07:16:52.863Z,37
2018-01-22T07:17:52.434Z,37.2
2018-01-22T07:18:52.681Z,37.3
2018-01-22T07:19:52.901Z,37.3
2018-01-22T07:20:52.822Z,37.3
2018-01-22T07:21:52.528Z,37.3
2018-01-22T07:22:52.278Z,37.3
2018-01-22T07:23:52.265Z,37.4
2018-01-22T07:24:51.813Z,37.4
2018-01-22T07:25:51.872Z,37.4
2018-01-22T07:26:52.143Z,37.5
2018-01-22T07:27:51.920Z,37.6
2018-01-22T07:28:51.682Z,37.6
2018-01-22T07:29:51.765Z,37.6
2018-01-22T07:30:51.523Z,37.6
2018-01-22T07:31:51.658Z,37.6
2018-01-22T07:32:51.265Z,37.7
2018-01-22T07:33:51.404Z,37.7
2018-01-22T07:34:51.548Z,37.7
2018-01-22T07:35:51.521Z,37.8
2018-01-22T07:36:51.429Z,37.8
2018-01-22T07:37:51.482Z,37.9
2018-01-22T07:38:51.340Z,37.9
2018-01-22T07:39:51.005Z,37.9
2018-01-22T07:40:51.096Z,38
2018-01-22T07:41:51.498Z,38
2018-01-22T07:42:50.576Z,38
2018-01-22T07:43:50.968Z,38.1
2018-01-22T07:44:50.621Z,35.9
2018-01-22T07:45:50.782Z,28.4
2018-01-22T07:46:50.586Z,25.9
2018-01-22T07:47:50.623Z,26
2018-01-22T07:48:50.518Z,29.3
2018-01-22T07:49:50.003Z,30.5
2018-01-22T07:50:50.124Z,31.4
2018-01-22T07:51:50.478Z,31.6
2018-01-22T07:52:50.100Z,31.4
2018-01-22T07:53:50.533Z,31.3
2018-01-22T07:54:49.839Z,31.2
2018-01-22T07:55:49.666Z,31.3
2018-01-22T07:56:49.833Z,31.5
2018-01-22T07:57:49.731Z,31.8
2018-01-22T07:58:49.958Z,32.1
2018-01-22T07:59:49.578Z,32.4
2018-01-22T08:00:49.648Z,32.8
2018-01-22T08:01:49.360Z,33.2
2018-01-22T08:02:49.417Z,33.8
2018-01-22T08:03:49.389Z,34.6
2018-01-22T08:04:49.339Z,35.2
2018-01-22T08:05:49.098Z,35.6
2018-01-22T08:06:49.142Z,35.9
2018-01-22T08:07:49.511Z,36.1
2018-01-22T08:08:48.690Z,36.4
2018-01-22T08:09:48.900Z,36.5
2018-01-22T08:11:48.797Z,36.8
2018-01-22T08:12:48.903Z,37
2018-01-22T08:13:48.823Z,37.1
2018-01-22T08:14:48.542Z,37.2
2018-01-22T08:15:48.849Z,37.3
2018-01-22T08:16:48.813Z,37.3
2018-01-22T08:17:48.443Z,37.4
2018-01-22T08:18:48.406Z,37.4
2018-01-22T08:19:48.591Z,37.4
2018-01-22T08:20:48.551Z,37.4
2018-01-22T08:21:48.055Z,37.5
2018-01-22T08:22:48.225Z,37.6
2018-01-22T08:23:47.963Z,37.6
2018-01-22T08:24:47.750Z,37.7
2018-01-22T08:25:48.025Z,37.7
2018-01-22T08:26:47.896Z,37.7
2018-01-22T08:27:47.774Z,37.8
2018-01-22T08:28:47.768Z,37.8
2018-01-22T08:29:47.703Z,37.9
2018-01-22T08:30:47.724Z,37.9
2018-01-22T08:31:47.192Z,37.9
2018-01-22T08:32:47.126Z,37.9
2018-01-22T08:33:47.504Z,37.9
2018-01-22T08:34:47.101Z,37.9
2018-01-22T08:35:47.247Z,38
2018-01-22T08:36:46.944Z,35.2
2018-01-22T08:37:46.896Z,27.9
2018-01-22T08:38:46.588Z,25.8
2018-01-22T08:39:46.928Z,26.3
2018-01-22T08:40:46.803Z,29.6
2018-01-22T08:41:46.593Z,30.6
2018-01-22T08:42:46.728Z,31.4
2018-01-22T08:43:46.643Z,31.6
2018-01-22T08:44:46.593Z,31.4
2018-01-22T08:45:46.814Z,31.3
2018-01-22T08:46:46.068Z,31.3
2018-01-22T08:47:46.473Z,31.4
2018-01-22T08:48:46.169Z,31.6
2018-01-22T08:49:46.132Z,31.9
2018-01-22T08:50:46.467Z,32.2
2018-01-22T08:51:46.001Z,32.5
2018-01-22T08:52:45.746Z,32.8
2018-01-22T08:53:46.103Z,33.4
2018-01-22T08:54:45.821Z,34.3
2018-01-22T08:55:45.994Z,35.2
2018-01-22T08:56:46.208Z,35.9
2018-01-22T08:57:45.675Z,36.3
2018-01-22T08:58:45.321Z,36.7
2018-01-22T08:59:45.770Z,36.9
2018-01-22T09:00:45.358Z,37.2
2018-01-22T09:01:45.494Z,37.3
2018-01-22T09:02:45.232Z,37.2
2018-01-22T09:03:45.541Z,37.2
2018-01-22T09:04:45.197Z,37.3
2018-01-22T09:05:45.042Z,37.3
2018-01-22T09:06:45.047Z,37.4
2018-01-22T09:07:44.811Z,37.4
2018-01-22T09:08:45.175Z,37.4
2018-01-22T09:09:44.759Z,37.3
2018-01-22T09:10:44.597Z,37.2
2018-01-22T09:11:45.212Z,37.2
2018-01-22T09:12:44.780Z,37.1
2018-01-22T09:13:44.577Z,37.2
2018-01-22T09:14:44.588Z,37.2
2018-01-22T09:15:44.303Z,37.2
2018-01-22T09:16:44.185Z,37.3
2018-01-22T09:17:44.485Z,37.3
2018-01-22T09:18:44.307Z,37.3
2018-01-22T09:19:44.217Z,37.3
2018-01-22T09:20:43.897Z,37.3
2018-01-22T09:21:43.908Z,37.4
2018-01-22T09:22:44.124Z,37.4
2018-01-22T09:23:43.773Z,37.4
2018-01-22T09:24:43.612Z,37.4
2018-01-22T09:25:44.022Z,37.4
2018-01-22T09:26:43.488Z,37.4
2018-01-22T09:27:43.886Z,37.5
2018-01-22T09:28:43.527Z,34.9
2018-01-22T09:29:43.198Z,27.6
2018-01-22T09:30:43.177Z,25.3
2018-01-22T09:31:43.194Z,25.8
2018-01-22T09:32:43.351Z,29.1
2018-01-22T09:33:43.390Z,30.4
2018-01-22T09:34:43.101Z,31.3
2018-01-22T09:35:42.980Z,31.6
2018-01-22T09:36:42.770Z,31.4
2018-01-22T09:37:42.688Z,31.3
2018-01-22T09:38:42.796Z,31.3
2018-01-22T09:39:42.813Z,31.4
2018-01-22T09:40:42.709Z,31.7
2018-01-22T09:41:42.349Z,32
2018-01-22T09:42:42.460Z,32.3
2018-01-22T09:43:42.370Z,32.6
2018-01-22T09:44:42.725Z,33
2018-01-22T09:45:42.292Z,33.4
2018-01-22T09:46:42.185Z,33.8
2018-01-22T09:47:42.090Z,34.4
2018-01-22T09:48:41.869Z,34.9
2018-01-22T09:49:42.086Z,35.2
2018-01-22T09:50:42.127Z,35.4
2018-01-22T09:51:41.856Z,35.7
2018-01-22T09:52:41.976Z,35.9
2018-01-22T09:53:41.796Z,36.1
2018-01-22T09:54:41.352Z,36.3
2018-01-22T09:55:42.328Z,36.4
2018-01-22T09:56:41.311Z,36.6
2018-01-22T09:57:41.357Z,36.7
2018-01-22T09:58:41.658Z,36.8
2018-01-22T09:59:41.313Z,36.9
2018-01-22T10:00:41.890Z,36.9
2018-01-22T10:01:41.503Z,36.9
2018-01-22T10:02:41.017Z,36.9
2018-01-22T10:03:41.035Z,37
2018-01-22T10:04:41.176Z,37.1
2018-01-22T10:05:41.065Z,37.1
2018-01-22T10:06:40.896Z,37.1
2018-01-22T10:07:40.649Z,37.1
2018-01-22T10:08:41.340Z,37.2
2018-01-22T10:09:40.516Z,37.3
2018-01-22T10:10:40.515Z,37.3
2018-01-22T10:11:40.618Z,37.3
2018-01-22T10:12:40.570Z,37.3
2018-01-22T10:13:40.730Z,37.3
2018-01-22T10:14:40.328Z,37.4
2018-01-22T10:15:40.085Z,37.4
2018-01-22T10:16:40.110Z,37.4
2018-01-22T10:17:39.925Z,35.3
2018-01-22T10:18:40.110Z,27.9
2018-01-22T10:19:40.191Z,25.4
2018-01-22T10:20:39.854Z,25.6
2018-01-22T10:21:40.022Z,28.9
2018-01-22T10:22:39.937Z,30.1
2018-01-22T10:23:39.741Z,30.2
2018-01-22T10:24:39.762Z,29.8
2018-01-22T10:25:39.700Z,29.6
2018-01-22T10:26:39.685Z,29.4
2018-01-22T10:27:39.252Z,29.4
2018-01-22T10:28:39.682Z,29.6
2018-01-22T10:29:39.234Z,29.8
2018-01-22T10:30:39.286Z,30
2018-01-22T10:31:39.460Z,30.4
2018-01-22T10:32:39.100Z,30.7
2018-01-22T10:33:38.959Z,31.1
2018-01-22T10:34:38.575Z,31.4
2018-01-22T10:35:38.841Z,32
2018-01-22T10:36:38.880Z,32.8
2018-01-22T10:37:38.857Z,33.9
2018-01-22T10:38:38.689Z,34.8
2018-01-22T10:39:38.592Z,35.3
2018-01-22T10:40:38.658Z,35.8
2018-01-22T10:41:38.613Z,36.1
2018-01-22T10:42:38.219Z,36.4
2018-01-22T10:43:38.241Z,36.7
2018-01-22T10:44:38.739Z,36.9
2018-01-22T10:45:38.572Z,37
2018-01-22T10:46:37.829Z,37.1
2018-01-22T10:47:38.585Z,37.3
2018-01-22T10:48:37.901Z,37.4
2018-01-22T10:49:37.822Z,37.4
2018-01-22T10:50:37.850Z,37.5
2018-01-22T10:51:37.867Z,37.5
2018-01-22T10:52:37.567Z,37.6
2018-01-22T10:53:37.770Z,37.6
2018-01-22T10:54:37.408Z,37.6
2018-01-22T10:55:37.376Z,37.7
2018-01-22T10:56:37.268Z,37.7
2018-01-22T10:57:37.279Z,37.8
2018-01-22T10:58:37.245Z,37.8
2018-01-22T10:59:36.951Z,37.8
2018-01-22T11:00:36.965Z,37.9
2018-01-22T11:01:36.876Z,37.9
2018-01-22T11:02:37.079Z,37.9
2018-01-22T11:03:36.696Z,38
2018-01-22T11:04:36.976Z,34.7
2018-01-22T11:05:36.590Z,27.6
2018-01-22T11:06:36.495Z,25.6
2018-01-22T11:07:36.777Z,26.4
2018-01-22T11:08:36.300Z,29.6
2018-01-22T11:09:36.173Z,30.8
2018-01-22T11:10:36.026Z,31.6
2018-01-22T11:11:36.065Z,31.8
2018-01-22T11:12:36.210Z,31.6
2018-01-22T11:13:36.215Z,31.4
2018-01-22T11:14:35.826Z,31.4
2018-01-22T11:15:35.728Z,31.6
2018-01-22T11:16:35.733Z,31.8
2018-01-22T11:17:35.678Z,32
2018-01-22T11:18:35.488Z,32.4
2018-01-22T11:19:35.273Z,32.7
2018-01-22T11:20:35.939Z,33.1
2018-01-22T11:21:35.845Z,33.6
2018-01-22T11:22:35.247Z,34.2
2018-01-22T11:23:35.632Z,34.9
2018-01-22T11:24:35.120Z,35.4
2018-01-22T11:25:35.097Z,35.8
2018-01-22T11:26:35.121Z,36.1
2018-01-22T11:27:35.219Z,36.3
2018-01-22T11:28:34.830Z,36.5
2018-01-22T11:29:34.697Z,36.6
2018-01-22T11:30:34.631Z,36.8
2018-01-22T11:31:34.824Z,36.9
2018-01-22T11:32:34.252Z,37.1
2018-01-22T11:33:34.427Z,37.3
2018-01-22T11:34:34.089Z,37.4
2018-01-22T11:35:34.198Z,37.5
2018-01-22T11:36:34.017Z,37.5
2018-01-22T11:37:34.194Z,37.4
2018-01-22T11:38:33.878Z,37.4
2018-01-22T11:39:34.368Z,37.3
2018-01-22T11:40:33.802Z,37.4
2018-01-22T11:41:33.775Z,34.6
2018-01-22T11:42:33.607Z,27.2
2018-01-22T11:43:34.046Z,24.8
2018-01-22T11:44:33.603Z,25.5
2018-01-22T11:45:33.476Z,29
2018-01-22T11:46:33.279Z,30.1
2018-01-22T11:47:33.796Z,30.1
2018-01-22T11:48:33.578Z,29.8
2018-01-22T11:49:33.136Z,29.6
2018-01-22T11:50:32.900Z,29.4
2018-01-22T11:51:33.095Z,29.5
2018-01-22T11:52:32.979Z,29.6
2018-01-22T11:53:32.801Z,29.8
2018-01-22T11:54:32.935Z,30.1
2018-01-22T11:55:32.627Z,30.5
2018-01-22T11:56:32.642Z,30.8
2018-01-22T11:57:32.630Z,31.1
2018-01-22T11:58:32.450Z,31.4
2018-01-22T11:59:32.382Z,32
2018-01-22T12:00:32.614Z,32.8
2018-01-22T12:01:32.419Z,33.5
2018-01-22T12:02:32.188Z,33.9
2018-01-22T12:03:31.800Z,34.3
2018-01-22T12:04:32.515Z,34.6
2018-01-22T12:05:31.917Z,34.9
2018-01-22T12:06:32.182Z,35.2
2018-01-22T12:07:31.969Z,35.4
2018-01-22T12:08:31.497Z,35.7
2018-01-22T12:09:31.567Z,35.9
2018-01-22T12:10:31.324Z,36.1
2018-01-22T12:11:31.541Z,36.2
2018-01-22T12:12:31.321Z,36.3
2018-01-22T12:13:31.196Z,36.4
2018-01-22T12:14:31.346Z,36.4
2018-01-22T12:15:30.979Z,36.5
2018-01-22T12:16:31.284Z,36.6
2018-01-22T12:17:31.055Z,36.6
2018-01-22T12:18:30.854Z,36.6
2018-01-22T12:19:30.861Z,36.6
2018-01-22T12:20:30.894Z,36.7
2018-01-22T12:21:30.703Z,36.7
2018-01-22T12:22:30.858Z,36.8
2018-01-22T12:23:30.411Z,36.8
2018-01-22T12:24:30.486Z,36.8
2018-01-22T12:25:30.511Z,36.8
2018-01-22T12:26:30.028Z,36.8
2018-01-22T12:27:29.999Z,36.9
2018-01-22T12:28:30.245Z,36.9
2018-01-22T12:29:30.208Z,36.8
2018-01-22T12:30:30.378Z,30.5
2018-01-22T12:31:30.096Z,25.6
2018-01-22T12:32:29.837Z,24.7
2018-01-22T12:33:29.762Z,27.3
2018-01-22T12:34:29.363Z,29.9
2018-01-22T12:35:29.280Z,30.4
2018-01-22T12:36:29.609Z,30.2
2018-01-22T12:37:29.249Z,29.9
2018-01-22T12:38:29.344Z,29.7
2018-01-22T12:39:29.283Z,29.6
2018-01-22T12:40:28.990Z,29.7
2018-01-22T12:41:28.999Z,29.8
2018-01-22T12:42:29.044Z,30
2018-01-22T12:43:28.881Z,30.3
2018-01-22T12:44:28.671Z,30.7
2018-01-22T12:45:29.091Z,31
2018-01-22T12:46:28.762Z,31.4
2018-01-22T12:47:28.412Z,31.8
2018-01-22T12:48:28.271Z,32.6
2018-01-22T12:49:28.185Z,33.7
2018-01-22T12:50:28.229Z,34.6
2018-01-22T12:51:28.034Z,35.3
2018-01-22T12:52:28.039Z,35.8
2018-01-22T12:53:28.551Z,36.3
2018-01-22T12:54:27.901Z,36.6
2018-01-22T12:55:27.987Z,36.9
2018-01-22T12:56:27.730Z,37.1
2018-01-22T12:57:27.674Z,37.3
2018-01-22T12:58:27.651Z,37.4
2018-01-22T12:59:27.408Z,37.6
2018-01-22T13:00:27.646Z,37.5
2018-01-22T13:01:27.634Z,37.4
2018-01-22T13:02:27.615Z,37.4
2018-01-22T13:03:27.612Z,37.4
2018-01-22T13:04:27.312Z,37.4
2018-01-22T13:05:27.258Z,37.4
2018-01-22T13:06:27.094Z,37.4
2018-01-22T13:07:27.159Z,37.4
2018-01-22T13:08:26.854Z,37.5
2018-01-22T13:09:27.192Z,37.5
2018-01-22T13:10:26.744Z,37.5
2018-01-22T13:11:26.946Z,37.5
2018-01-22T13:12:26.973Z,37.6
2018-01-22T13:13:26.972Z,32.8
2018-01-22T13:14:26.970Z,26.6
2018-01-22T13:15:26.426Z,25.3
2018-01-22T13:16:26.285Z,27.1
2018-01-22T13:17:26.542Z,30.3
2018-01-22T13:18:26.537Z,30.9
2018-01-22T13:19:26.339Z,30.8
2018-01-22T13:20:26.216Z,30.3
2018-01-22T13:21:25.925Z,29.9
2018-01-22T13:22:26.259Z,29.7
2018-01-22T13:23:25.778Z,29.7
2018-01-22T13:24:25.767Z,29.8
2018-01-22T13:25:25.593Z,30.1
2018-01-22T13:26:25.544Z,30.3
2018-01-22T13:27:26.058Z,30.6
2018-01-22T13:28:25.331Z,30.9
2018-01-22T13:29:25.195Z,31.3
2018-01-22T13:30:25.299Z,31.7
2018-01-22T13:31:25.098Z,32.4
2018-01-22T13:32:25.598Z,33.1
2018-01-22T13:33:24.914Z,33.7
2018-01-22T13:34:24.756Z,34.1
2018-01-22T13:35:24.581Z,34.4
2018-01-22T13:36:24.598Z,34.8
2018-01-22T13:37:24.654Z,34.9
2018-01-22T13:38:24.350Z,35.2
2018-01-22T13:39:24.482Z,35.4
2018-01-22T13:40:24.873Z,35.6
2018-01-22T13:41:24.578Z,35.8
2018-01-22T13:42:24.898Z,35.9
2018-01-22T13:43:24.451Z,36
2018-01-22T13:44:23.878Z,36.1
2018-01-22T13:45:23.888Z,36.3
2018-01-22T13:46:24.116Z,36.3
2018-01-22T13:47:23.736Z,36.4
2018-01-22T13:48:23.453Z,36.4